sensor_id;sensor_type;location;lat;lon;timestamp;P1;durP1;ratioP1;P2;durP2;ratioP2
65871;SDS011;52653;50.080;21.992;2023-03-14T00:02:11;8.70;;;5.70;;
65871;SDS011;52653;50.080;21.992;2023-03-14T00:04:44;9.90;;;5.60;;
65871;SDS011;52653;50.080;21.992;2023-03-14T00:07:37;10.00;;;6.00;;
65871;SDS011;52653;50.080;21.992;2023-03-14T00:10:13;8.20;;;5.60;;
65871;SDS011;52653;50.080;21.992;2023-03-14T00:12:46;9.80;;;5.50;;
65871;SDS011;52653;50.080;21.992;2023-03-14T00:15:19;9.20;;;5.60;;
65871;SDS011;52653;50.080;21.992;2023-03-14T00:17:52;9.00;;;5.50;;
65871;SDS011;52653;50.080;21.992;2023-03-14T00:20:26;9.30;;;5.60;;
65871;SDS011;52653;50.080;21.992;2023-03-14T00:22:59;7.80;;;5.20;;
65871;SDS011;52653;50.080;21.992;2023-03-14T00:25:32;8.30;;;5.20;;
65871;SDS011;52653;50.080;21.992;2023-03-14T00:28:05;10.10;;;5.50;;
65871;SDS011;52653;50.080;21.992;2023-03-14T00:30:42;8.70;;;5.80;;
65871;SDS011;52653;50.080;21.992;2023-03-14T00:33:16;9.80;;;6.30;;
65871;SDS011;52653;50.080;21.992;2023-03-14T00:35:53;8.40;;;5.50;;
65871;SDS011;52653;50.080;21.992;2023-03-14T00:38:27;9.90;;;5.50;;
65871;SDS011;52653;50.080;21.992;2023-03-14T00:41:04;9.10;;;5.90;;
65871;SDS011;52653;50.080;21.992;2023-03-14T00:46:14;11.20;;;5.70;;
65871;SDS011;52653;50.080;21.992;2023-03-14T00:48:49;9.20;;;5.70;;
65871;SDS011;52653;50.080;21.992;2023-03-14T00:51:25;8.90;;;6.00;;
65871;SDS011;52653;50.080;21.992;2023-03-14T00:53:58;8.90;;;5.90;;
65871;SDS011;52653;50.080;21.992;2023-03-14T00:56:33;9.80;;;5.90;;
65871;SDS011;52653;50.080;21.992;2023-03-14T00:59:06;9.80;;;5.70;;
65871;SDS011;52653;50.080;21.992;2023-03-14T01:01:39;8.50;;;5.50;;
65871;SDS011;52653;50.080;21.992;2023-03-14T01:04:14;9.40;;;5.80;;
65871;SDS011;52653;50.080;21.992;2023-03-14T01:06:47;9.60;;;6.00;;
65871;SDS011;52653;50.080;21.992;2023-03-14T01:09:23;9.70;;;5.90;;
65871;SDS011;52653;50.080;21.992;2023-03-14T01:11:56;9.80;;;5.50;;
65871;SDS011;52653;50.080;21.992;2023-03-14T01:14:31;8.40;;;5.50;;
65871;SDS011;52653;50.080;21.992;2023-03-14T01:17:05;7.70;;;5.10;;
65871;SDS011;52653;50.080;21.992;2023-03-14T01:19:39;9.20;;;5.00;;
65871;SDS011;52653;50.080;21.992;2023-03-14T01:22:14;9.50;;;5.30;;
65871;SDS011;52653;50.080;21.992;2023-03-14T01:24:49;8.80;;;4.70;;
65871;SDS011;52653;50.080;21.992;2023-03-14T01:27:22;7.40;;;4.70;;
65871;SDS011;52653;50.080;21.992;2023-03-14T01:29:55;8.90;;;4.60;;
65871;SDS011;52653;50.080;21.992;2023-03-14T01:32:30;8.70;;;4.60;;
65871;SDS011;52653;50.080;21.992;2023-03-14T01:35:06;10.20;;;4.50;;
65871;SDS011;52653;50.080;21.992;2023-03-14T01:37:40;7.80;;;4.60;;
65871;SDS011;52653;50.080;21.992;2023-03-14T01:40:17;7.10;;;4.40;;
65871;SDS011;52653;50.080;21.992;2023-03-14T01:42:56;8.50;;;4.30;;
65871;SDS011;52653;50.080;21.992;2023-03-14T01:48:48;7.60;;;4.40;;
65871;SDS011;52653;50.080;21.992;2023-03-14T01:51:27;7.80;;;4.20;;
65871;SDS011;52653;50.080;21.992;2023-03-14T01:54:07;8.40;;;4.10;;
65871;SDS011;52653;50.080;21.992;2023-03-14T01:56:48;7.50;;;4.20;;
65871;SDS011;52653;50.080;21.992;2023-03-14T01:59:29;6.80;;;3.70;;
65871;SDS011;52653;50.080;21.992;2023-03-14T02:02:03;6.80;;;3.80;;
65871;SDS011;52653;50.080;21.992;2023-03-14T02:04:38;7.10;;;4.10;;
65871;SDS011;52653;50.080;21.992;2023-03-14T02:07:17;7.60;;;4.20;;
65871;SDS011;52653;50.080;21.992;2023-03-14T02:10:07;7.20;;;4.10;;
65871;SDS011;52653;50.080;21.992;2023-03-14T02:12:41;8.50;;;4.60;;
65871;SDS011;52653;50.080;21.992;2023-03-14T02:15:34;7.20;;;4.10;;
65871;SDS011;52653;50.080;21.992;2023-03-14T02:18:15;6.70;;;4.00;;
65871;SDS011;52653;50.080;21.992;2023-03-14T02:21:11;6.70;;;3.90;;
65871;SDS011;52653;50.080;21.992;2023-03-14T02:23:53;6.70;;;4.30;;
65871;SDS011;52653;50.080;21.992;2023-03-14T02:26:43;7.10;;;4.30;;
65871;SDS011;52653;50.080;21.992;2023-03-14T02:29:33;6.90;;;4.10;;
65871;SDS011;52653;50.080;21.992;2023-03-14T02:32:12;7.90;;;4.30;;
65871;SDS011;52653;50.080;21.992;2023-03-14T02:34:48;7.10;;;4.10;;
65871;SDS011;52653;50.080;21.992;2023-03-14T02:37:26;8.20;;;4.50;;
65871;SDS011;52653;50.080;21.992;2023-03-14T02:40:05;7.00;;;4.30;;
65871;SDS011;52653;50.080;21.992;2023-03-14T02:42:40;6.60;;;3.90;;
65871;SDS011;52653;50.080;21.992;2023-03-14T02:45:37;8.30;;;4.40;;
65871;SDS011;52653;50.080;21.992;2023-03-14T02:48:15;7.90;;;4.20;;
65871;SDS011;52653;50.080;21.992;2023-03-14T02:50:50;7.90;;;4.90;;
65871;SDS011;52653;50.080;21.992;2023-03-14T02:53:27;7.80;;;4.00;;
65871;SDS011;52653;50.080;21.992;2023-03-14T02:56:06;8.80;;;4.40;;
65871;SDS011;52653;50.080;21.992;2023-03-14T02:58:44;8.30;;;4.50;;
65871;SDS011;52653;50.080;21.992;2023-03-14T03:01:30;8.10;;;4.00;;
65871;SDS011;52653;50.080;21.992;2023-03-14T03:04:04;8.00;;;4.30;;
65871;SDS011;52653;50.080;21.992;2023-03-14T03:06:38;7.10;;;4.40;;
65871;SDS011;52653;50.080;21.992;2023-03-14T03:09:12;7.30;;;4.60;;
65871;SDS011;52653;50.080;21.992;2023-03-14T03:11:56;7.10;;;3.90;;
65871;SDS011;52653;50.080;21.992;2023-03-14T03:14:29;7.00;;;4.10;;
65871;SDS011;52653;50.080;21.992;2023-03-14T03:17:11;5.60;;;3.50;;
65871;SDS011;52653;50.080;21.992;2023-03-14T03:19:47;6.50;;;3.90;;
65871;SDS011;52653;50.080;21.992;2023-03-14T03:22:20;7.10;;;4.40;;
65871;SDS011;52653;50.080;21.992;2023-03-14T03:24:54;8.20;;;3.60;;
65871;SDS011;52653;50.080;21.992;2023-03-14T03:27:28;6.50;;;3.60;;
65871;SDS011;52653;50.080;21.992;2023-03-14T03:30:02;7.90;;;4.00;;
65871;SDS011;52653;50.080;21.992;2023-03-14T03:32:39;7.20;;;3.90;;
65871;SDS011;52653;50.080;21.992;2023-03-14T03:35:13;6.90;;;3.70;;
65871;SDS011;52653;50.080;21.992;2023-03-14T03:37:48;7.90;;;4.00;;
65871;SDS011;52653;50.080;21.992;2023-03-14T03:40:21;6.20;;;3.80;;
65871;SDS011;52653;50.080;21.992;2023-03-14T03:42:54;6.90;;;3.80;;
65871;SDS011;52653;50.080;21.992;2023-03-14T03:45:27;7.90;;;3.90;;
65871;SDS011;52653;50.080;21.992;2023-03-14T03:48:01;7.00;;;3.60;;
65871;SDS011;52653;50.080;21.992;2023-03-14T03:50:35;7.10;;;4.10;;
65871;SDS011;52653;50.080;21.992;2023-03-14T03:53:11;5.00;;;3.50;;
65871;SDS011;52653;50.080;21.992;2023-03-14T03:55:59;7.80;;;3.70;;
65871;SDS011;52653;50.080;21.992;2023-03-14T03:58:32;7.80;;;3.90;;
65871;SDS011;52653;50.080;21.992;2023-03-14T04:01:17;7.10;;;4.20;;
65871;SDS011;52653;50.080;21.992;2023-03-14T04:03:53;6.30;;;3.90;;
65871;SDS011;52653;50.080;21.992;2023-03-14T04:06:46;6.30;;;3.80;;
65871;SDS011;52653;50.080;21.992;2023-03-14T04:09:39;6.50;;;3.50;;
65871;SDS011;52653;50.080;21.992;2023-03-14T04:12:31;6.30;;;3.50;;
65871;SDS011;52653;50.080;21.992;2023-03-14T04:15:27;6.30;;;3.80;;
65871;SDS011;52653;50.080;21.992;2023-03-14T04:18:20;6.40;;;3.50;;
65871;SDS011;52653;50.080;21.992;2023-03-14T04:21:14;7.30;;;4.00;;
65871;SDS011;52653;50.080;21.992;2023-03-14T04:24:08;7.30;;;3.80;;
65871;SDS011;52653;50.080;21.992;2023-03-14T04:27:01;8.40;;;3.70;;
65871;SDS011;52653;50.080;21.992;2023-03-14T04:29:54;7.10;;;3.90;;
65871;SDS011;52653;50.080;21.992;2023-03-14T04:32:47;6.70;;;3.70;;
65871;SDS011;52653;50.080;21.992;2023-03-14T04:35:23;6.70;;;4.00;;
65871;SDS011;52653;50.080;21.992;2023-03-14T04:38:17;9.00;;;4.30;;
65871;SDS011;52653;50.080;21.992;2023-03-14T04:41:10;6.40;;;3.70;;
65871;SDS011;52653;50.080;21.992;2023-03-14T04:43:57;8.00;;;4.10;;
65871;SDS011;52653;50.080;21.992;2023-03-14T04:46:40;7.70;;;3.90;;
65871;SDS011;52653;50.080;21.992;2023-03-14T04:49:24;6.80;;;3.90;;
65871;SDS011;52653;50.080;21.992;2023-03-14T04:52:18;7.40;;;4.20;;
65871;SDS011;52653;50.080;21.992;2023-03-14T04:55:11;7.10;;;4.20;;
65871;SDS011;52653;50.080;21.992;2023-03-14T04:57:55;7.60;;;4.60;;
65871;SDS011;52653;50.080;21.992;2023-03-14T05:00:42;8.60;;;4.40;;
65871;SDS011;52653;50.080;21.992;2023-03-14T05:03:38;6.80;;;4.30;;
65871;SDS011;52653;50.080;21.992;2023-03-14T05:06:34;7.80;;;3.90;;
65871;SDS011;52653;50.080;21.992;2023-03-14T05:09:27;6.70;;;3.70;;
65871;SDS011;52653;50.080;21.992;2023-03-14T05:12:23;7.50;;;4.00;;
65871;SDS011;52653;50.080;21.992;2023-03-14T05:15:19;9.00;;;4.40;;
65871;SDS011;52653;50.080;21.992;2023-03-14T05:18:13;7.20;;;4.00;;
65871;SDS011;52653;50.080;21.992;2023-03-14T05:21:06;7.20;;;4.20;;
65871;SDS011;52653;50.080;21.992;2023-03-14T05:24:05;7.80;;;3.90;;
65871;SDS011;52653;50.080;21.992;2023-03-14T05:26:57;7.30;;;4.10;;
65871;SDS011;52653;50.080;21.992;2023-03-14T05:30:02;8.10;;;3.80;;
65871;SDS011;52653;50.080;21.992;2023-03-14T05:32:58;6.20;;;3.80;;
65871;SDS011;52653;50.080;21.992;2023-03-14T05:36:02;7.60;;;3.60;;
65871;SDS011;52653;50.080;21.992;2023-03-14T05:38:54;8.20;;;3.60;;
65871;SDS011;52653;50.080;21.992;2023-03-14T05:41:59;7.00;;;3.70;;
65871;SDS011;52653;50.080;21.992;2023-03-14T05:44:50;6.20;;;3.80;;
65871;SDS011;52653;50.080;21.992;2023-03-14T05:47:49;6.40;;;3.70;;
65871;SDS011;52653;50.080;21.992;2023-03-14T05:51:01;6.30;;;3.50;;
65871;SDS011;52653;50.080;21.992;2023-03-14T05:53:57;7.20;;;3.50;;
65871;SDS011;52653;50.080;21.992;2023-03-14T05:56:55;8.20;;;3.70;;
65871;SDS011;52653;50.080;21.992;2023-03-14T05:59:46;7.10;;;3.80;;
65871;SDS011;52653;50.080;21.992;2023-03-14T06:02:38;6.40;;;3.80;;
65871;SDS011;52653;50.080;21.992;2023-03-14T06:05:30;5.70;;;3.40;;
65871;SDS011;52653;50.080;21.992;2023-03-14T06:08:06;7.80;;;3.70;;
65871;SDS011;52653;50.080;21.992;2023-03-14T06:11:10;7.00;;;3.70;;
65871;SDS011;52653;50.080;21.992;2023-03-14T06:13:46;9.40;;;4.10;;
65871;SDS011;52653;50.080;21.992;2023-03-14T06:16:38;6.80;;;3.30;;
65871;SDS011;52653;50.080;21.992;2023-03-14T06:19:24;7.40;;;4.10;;
65871;SDS011;52653;50.080;21.992;2023-03-14T06:22:17;8.30;;;3.80;;
65871;SDS011;52653;50.080;21.992;2023-03-14T06:25:10;6.00;;;3.40;;
65871;SDS011;52653;50.080;21.992;2023-03-14T06:27:56;6.60;;;3.30;;
65871;SDS011;52653;50.080;21.992;2023-03-14T06:30:41;7.10;;;3.70;;
65871;SDS011;52653;50.080;21.992;2023-03-14T06:33:18;8.50;;;4.00;;
65871;SDS011;52653;50.080;21.992;2023-03-14T06:35:50;6.60;;;3.90;;
65871;SDS011;52653;50.080;21.992;2023-03-14T06:38:24;5.80;;;3.40;;
65871;SDS011;52653;50.080;21.992;2023-03-14T06:41:17;6.20;;;3.40;;
65871;SDS011;52653;50.080;21.992;2023-03-14T06:43:50;7.10;;;3.30;;
65871;SDS011;52653;50.080;21.992;2023-03-14T06:46:29;7.00;;;3.40;;
65871;SDS011;52653;50.080;21.992;2023-03-14T06:49:03;5.40;;;3.20;;
65871;SDS011;52653;50.080;21.992;2023-03-14T06:51:36;6.30;;;3.50;;
65871;SDS011;52653;50.080;21.992;2023-03-14T06:54:12;6.70;;;3.00;;
65871;SDS011;52653;50.080;21.992;2023-03-14T06:56:48;7.10;;;3.40;;
65871;SDS011;52653;50.080;21.992;2023-03-14T06:59:26;7.00;;;3.20;;
65871;SDS011;52653;50.080;21.992;2023-03-14T07:01:59;6.70;;;3.60;;
65871;SDS011;52653;50.080;21.992;2023-03-14T07:04:33;6.50;;;3.20;;
65871;SDS011;52653;50.080;21.992;2023-03-14T07:07:06;6.70;;;3.30;;
65871;SDS011;52653;50.080;21.992;2023-03-14T07:09:39;6.40;;;3.50;;
65871;SDS011;52653;50.080;21.992;2023-03-14T07:12:22;5.80;;;3.20;;
65871;SDS011;52653;50.080;21.992;2023-03-14T07:14:56;6.10;;;3.40;;
65871;SDS011;52653;50.080;21.992;2023-03-14T07:17:45;6.00;;;3.40;;
65871;SDS011;52653;50.080;21.992;2023-03-14T07:20:23;7.50;;;3.80;;
65871;SDS011;52653;50.080;21.992;2023-03-14T07:22:56;6.60;;;3.50;;
65871;SDS011;52653;50.080;21.992;2023-03-14T07:25:46;5.90;;;3.10;;
65871;SDS011;52653;50.080;21.992;2023-03-14T07:28:24;6.70;;;3.70;;
65871;SDS011;52653;50.080;21.992;2023-03-14T07:31:01;7.50;;;3.40;;
65871;SDS011;52653;50.080;21.992;2023-03-14T07:33:35;6.60;;;3.20;;
65871;SDS011;52653;50.080;21.992;2023-03-14T07:36:11;8.50;;;3.60;;
65871;SDS011;52653;50.080;21.992;2023-03-14T07:38:46;7.30;;;3.60;;
65871;SDS011;52653;50.080;21.992;2023-03-14T07:41:41;6.40;;;3.40;;
65871;SDS011;52653;50.080;21.992;2023-03-14T07:44:37;7.00;;;3.40;;
65871;SDS011;52653;50.080;21.992;2023-03-14T07:47:10;7.00;;;3.80;;
65871;SDS011;52653;50.080;21.992;2023-03-14T07:49:43;8.00;;;5.30;;
65871;SDS011;52653;50.080;21.992;2023-03-14T07:52:16;5.90;;;3.40;;
65871;SDS011;52653;50.080;21.992;2023-03-14T07:54:52;6.90;;;3.60;;
65871;SDS011;52653;50.080;21.992;2023-03-14T07:57:24;6.90;;;3.70;;
65871;SDS011;52653;50.080;21.992;2023-03-14T08:00:00;8.70;;;4.90;;
65871;SDS011;52653;50.080;21.992;2023-03-14T08:02:41;7.60;;;3.20;;
65871;SDS011;52653;50.080;21.992;2023-03-14T08:05:16;8.90;;;5.30;;
65871;SDS011;52653;50.080;21.992;2023-03-14T08:07:49;6.80;;;3.50;;
65871;SDS011;52653;50.080;21.992;2023-03-14T08:10:24;8.10;;;4.80;;
65871;SDS011;52653;50.080;21.992;2023-03-14T08:13:00;14.30;;;8.70;;
65871;SDS011;52653;50.080;21.992;2023-03-14T08:15:34;18.10;;;11.30;;
65871;SDS011;52653;50.080;21.992;2023-03-14T08:18:18;8.30;;;4.30;;
65871;SDS011;52653;50.080;21.992;2023-03-14T08:20:54;7.10;;;4.00;;
65871;SDS011;52653;50.080;21.992;2023-03-14T08:23:30;6.50;;;3.40;;
65871;SDS011;52653;50.080;21.992;2023-03-14T08:26:03;5.80;;;3.30;;
65871;SDS011;52653;50.080;21.992;2023-03-14T08:28:40;6.30;;;2.50;;
65871;SDS011;52653;50.080;21.992;2023-03-14T08:31:12;7.00;;;3.00;;
65871;SDS011;52653;50.080;21.992;2023-03-14T08:33:48;6.40;;;3.10;;
65871;SDS011;52653;50.080;21.992;2023-03-14T08:36:22;10.10;;;5.10;;
65871;SDS011;52653;50.080;21.992;2023-03-14T08:38:59;9.30;;;4.40;;
65871;SDS011;52653;50.080;21.992;2023-03-14T08:41:33;7.30;;;3.40;;
65871;SDS011;52653;50.080;21.992;2023-03-14T08:44:10;8.90;;;4.30;;
65871;SDS011;52653;50.080;21.992;2023-03-14T08:46:46;10.40;;;5.70;;
65871;SDS011;52653;50.080;21.992;2023-03-14T08:49:21;10.40;;;6.70;;
65871;SDS011;52653;50.080;21.992;2023-03-14T08:51:54;12.00;;;7.00;;
65871;SDS011;52653;50.080;21.992;2023-03-14T08:54:28;11.70;;;5.70;;
65871;SDS011;52653;50.080;21.992;2023-03-14T08:57:00;9.50;;;3.60;;
65871;SDS011;52653;50.080;21.992;2023-03-14T08:59:34;6.50;;;3.10;;
65871;SDS011;52653;50.080;21.992;2023-03-14T09:02:09;7.70;;;3.40;;
65871;SDS011;52653;50.080;21.992;2023-03-14T09:04:43;7.60;;;3.60;;
65871;SDS011;52653;50.080;21.992;2023-03-14T09:07:16;7.90;;;3.30;;
65871;SDS011;52653;50.080;21.992;2023-03-14T09:09:51;5.90;;;2.80;;
65871;SDS011;52653;50.080;21.992;2023-03-14T09:12:25;6.80;;;3.80;;
65871;SDS011;52653;50.080;21.992;2023-03-14T09:14:58;6.70;;;3.20;;
65871;SDS011;52653;50.080;21.992;2023-03-14T09:17:31;6.70;;;3.40;;
65871;SDS011;52653;50.080;21.992;2023-03-14T09:20:09;6.90;;;3.00;;
65871;SDS011;52653;50.080;21.992;2023-03-14T09:22:45;6.90;;;3.30;;
65871;SDS011;52653;50.080;21.992;2023-03-14T09:25:18;4.90;;;2.60;;
65871;SDS011;52653;50.080;21.992;2023-03-14T09:27:51;6.70;;;3.00;;
65871;SDS011;52653;50.080;21.992;2023-03-14T09:30:24;6.70;;;3.00;;
65871;SDS011;52653;50.080;21.992;2023-03-14T09:32:57;6.80;;;3.10;;
65871;SDS011;52653;50.080;21.992;2023-03-14T09:35:30;8.00;;;3.30;;
65871;SDS011;52653;50.080;21.992;2023-03-14T09:38:08;7.70;;;3.00;;
65871;SDS011;52653;50.080;21.992;2023-03-14T09:40:41;6.70;;;3.00;;
65871;SDS011;52653;50.080;21.992;2023-03-14T09:43:14;7.40;;;3.10;;
65871;SDS011;52653;50.080;21.992;2023-03-14T09:45:48;6.70;;;3.10;;
65871;SDS011;52653;50.080;21.992;2023-03-14T09:48:22;5.90;;;2.90;;
65871;SDS011;52653;50.080;21.992;2023-03-14T09:50:58;6.50;;;3.00;;
65871;SDS011;52653;50.080;21.992;2023-03-14T09:53:37;5.50;;;3.10;;
65871;SDS011;52653;50.080;21.992;2023-03-14T09:56:13;5.50;;;3.20;;
65871;SDS011;52653;50.080;21.992;2023-03-14T09:58:50;6.10;;;3.20;;
65871;SDS011;52653;50.080;21.992;2023-03-14T10:01:27;7.80;;;3.50;;
65871;SDS011;52653;50.080;21.992;2023-03-14T10:04:02;6.70;;;3.10;;
65871;SDS011;52653;50.080;21.992;2023-03-14T10:06:41;7.80;;;3.10;;
65871;SDS011;52653;50.080;21.992;2023-03-14T10:09:15;7.40;;;3.40;;
65871;SDS011;52653;50.080;21.992;2023-03-14T10:11:57;5.70;;;3.00;;
65871;SDS011;52653;50.080;21.992;2023-03-14T10:14:37;5.90;;;3.00;;
65871;SDS011;52653;50.080;21.992;2023-03-14T10:17:20;6.60;;;3.30;;
65871;SDS011;52653;50.080;21.992;2023-03-14T10:19:55;6.50;;;3.30;;
65871;SDS011;52653;50.080;21.992;2023-03-14T10:22:30;6.80;;;3.30;;
65871;SDS011;52653;50.080;21.992;2023-03-14T10:25:04;8.00;;;3.30;;
65871;SDS011;52653;50.080;21.992;2023-03-14T10:27:58;5.40;;;2.80;;
65871;SDS011;52653;50.080;21.992;2023-03-14T10:30:33;6.30;;;3.70;;
65871;SDS011;52653;50.080;21.992;2023-03-14T10:33:21;7.50;;;3.50;;
65871;SDS011;52653;50.080;21.992;2023-03-14T10:35:56;10.80;;;3.30;;
65871;SDS011;52653;50.080;21.992;2023-03-14T10:38:31;5.90;;;3.50;;
65871;SDS011;52653;50.080;21.992;2023-03-14T10:41:14;5.20;;;3.10;;
65871;SDS011;52653;50.080;21.992;2023-03-14T10:43:51;6.00;;;3.40;;
65871;SDS011;52653;50.080;21.992;2023-03-14T10:46:25;6.30;;;3.40;;
65871;SDS011;52653;50.080;21.992;2023-03-14T10:49:25;7.20;;;3.30;;
65871;SDS011;52653;50.080;21.992;2023-03-14T10:52:02;7.30;;;3.40;;
65871;SDS011;52653;50.080;21.992;2023-03-14T10:54:50;6.70;;;3.70;;
65871;SDS011;52653;50.080;21.992;2023-03-14T10:57:27;8.30;;;3.60;;
65871;SDS011;52653;50.080;21.992;2023-03-14T11:00:11;7.70;;;3.40;;
65871;SDS011;52653;50.080;21.992;2023-03-14T11:02:58;8.00;;;3.60;;
65871;SDS011;52653;50.080;21.992;2023-03-14T11:05:40;5.70;;;3.20;;
65871;SDS011;52653;50.080;21.992;2023-03-14T11:08:23;7.10;;;3.70;;
65871;SDS011;52653;50.080;21.992;2023-03-14T11:11:06;7.50;;;3.30;;
65871;SDS011;52653;50.080;21.992;2023-03-14T11:13:46;5.80;;;3.40;;
65871;SDS011;52653;50.080;21.992;2023-03-14T11:16:28;6.80;;;3.50;;
65871;SDS011;52653;50.080;21.992;2023-03-14T11:19:12;6.40;;;3.40;;
65871;SDS011;52653;50.080;21.992;2023-03-14T11:22:06;6.40;;;3.80;;
65871;SDS011;52653;50.080;21.992;2023-03-14T11:25:24;7.20;;;3.40;;
65871;SDS011;52653;50.080;21.992;2023-03-14T11:28:04;7.80;;;3.30;;
65871;SDS011;52653;50.080;21.992;2023-03-14T11:30:49;6.10;;;3.60;;
65871;SDS011;52653;50.080;21.992;2023-03-14T11:33:24;5.50;;;3.00;;
65871;SDS011;52653;50.080;21.992;2023-03-14T11:36:06;6.10;;;3.00;;
65871;SDS011;52653;50.080;21.992;2023-03-14T11:38:51;8.10;;;3.40;;
65871;SDS011;52653;50.080;21.992;2023-03-14T11:41:31;7.40;;;3.30;;
65871;SDS011;52653;50.080;21.992;2023-03-14T11:44:10;8.10;;;3.70;;
65871;SDS011;52653;50.080;21.992;2023-03-14T11:46:50;7.00;;;3.60;;
65871;SDS011;52653;50.080;21.992;2023-03-14T11:49:32;7.90;;;3.90;;
65871;SDS011;52653;50.080;21.992;2023-03-14T11:52:22;6.90;;;4.00;;
65871;SDS011;52653;50.080;21.992;2023-03-14T11:55:05;7.80;;;3.70;;
65871;SDS011;52653;50.080;21.992;2023-03-14T11:57:43;6.30;;;3.60;;
65871;SDS011;52653;50.080;21.992;2023-03-14T12:00:24;6.90;;;3.20;;
65871;SDS011;52653;50.080;21.992;2023-03-14T12:02:58;7.30;;;3.90;;
65871;SDS011;52653;50.080;21.992;2023-03-14T12:05:42;6.90;;;3.90;;
65871;SDS011;52653;50.080;21.992;2023-03-14T12:11:20;7.30;;;3.30;;
65871;SDS011;52653;50.080;21.992;2023-03-14T12:13:58;8.30;;;3.60;;
65871;SDS011;52653;50.080;21.992;2023-03-14T12:16:35;6.30;;;3.40;;
65871;SDS011;52653;50.080;21.992;2023-03-14T12:19:26;6.80;;;3.70;;
65871;SDS011;52653;50.080;21.992;2023-03-14T12:22:07;6.90;;;3.60;;
65871;SDS011;52653;50.080;21.992;2023-03-14T12:24:51;5.90;;;3.60;;
65871;SDS011;52653;50.080;21.992;2023-03-14T12:30:37;6.10;;;3.70;;
65871;SDS011;52653;50.080;21.992;2023-03-14T12:33:21;7.30;;;3.50;;
65871;SDS011;52653;50.080;21.992;2023-03-14T12:36:29;6.80;;;3.70;;
65871;SDS011;52653;50.080;21.992;2023-03-14T12:39:22;6.70;;;3.50;;
65871;SDS011;52653;50.080;21.992;2023-03-14T12:42:05;7.10;;;3.50;;
65871;SDS011;52653;50.080;21.992;2023-03-14T12:44:48;6.60;;;3.60;;
65871;SDS011;52653;50.080;21.992;2023-03-14T12:50:34;6.70;;;3.80;;
65871;SDS011;52653;50.080;21.992;2023-03-14T12:56:23;6.40;;;3.60;;
65871;SDS011;52653;50.080;21.992;2023-03-14T12:59:18;7.60;;;3.80;;
65871;SDS011;52653;50.080;21.992;2023-03-14T13:02:24;7.10;;;3.50;;
65871;SDS011;52653;50.080;21.992;2023-03-14T13:05:03;7.00;;;4.00;;
65871;SDS011;52653;50.080;21.992;2023-03-14T13:08:04;7.20;;;3.90;;
65871;SDS011;52653;50.080;21.992;2023-03-14T13:10:41;5.80;;;3.60;;
65871;SDS011;52653;50.080;21.992;2023-03-14T13:13:20;7.50;;;4.50;;
65871;SDS011;52653;50.080;21.992;2023-03-14T13:15:59;6.60;;;4.00;;
65871;SDS011;52653;50.080;21.992;2023-03-14T13:18:38;7.30;;;4.00;;
65871;SDS011;52653;50.080;21.992;2023-03-14T13:21:14;7.10;;;3.80;;
65871;SDS011;52653;50.080;21.992;2023-03-14T13:23:56;6.70;;;4.00;;
65871;SDS011;52653;50.080;21.992;2023-03-14T13:26:34;9.00;;;3.60;;
65871;SDS011;52653;50.080;21.992;2023-03-14T13:29:17;7.50;;;3.70;;
65871;SDS011;52653;50.080;21.992;2023-03-14T13:31:51;8.80;;;5.00;;
65871;SDS011;52653;50.080;21.992;2023-03-14T13:34:26;8.30;;;4.10;;
65871;SDS011;52653;50.080;21.992;2023-03-14T13:37:01;15.20;;;4.30;;
65871;SDS011;52653;50.080;21.992;2023-03-14T13:39:37;6.40;;;3.90;;
65871;SDS011;52653;50.080;21.992;2023-03-14T13:42:14;5.90;;;3.90;;
65871;SDS011;52653;50.080;21.992;2023-03-14T13:44:48;6.70;;;3.90;;
65871;SDS011;52653;50.080;21.992;2023-03-14T13:47:22;7.20;;;4.00;;
65871;SDS011;52653;50.080;21.992;2023-03-14T13:50:00;10.10;;;4.30;;
65871;SDS011;52653;50.080;21.992;2023-03-14T13:52:34;5.80;;;3.70;;
65871;SDS011;52653;50.080;21.992;2023-03-14T13:55:14;8.30;;;4.00;;
65871;SDS011;52653;50.080;21.992;2023-03-14T13:57:49;6.10;;;3.70;;
65871;SDS011;52653;50.080;21.992;2023-03-14T14:00:27;7.90;;;3.90;;
65871;SDS011;52653;50.080;21.992;2023-03-14T14:03:01;8.40;;;4.30;;
65871;SDS011;52653;50.080;21.992;2023-03-14T14:05:34;7.70;;;4.30;;
65871;SDS011;52653;50.080;21.992;2023-03-14T14:08:11;7.80;;;4.40;;
65871;SDS011;52653;50.080;21.992;2023-03-14T14:10:45;7.80;;;4.40;;
65871;SDS011;52653;50.080;21.992;2023-03-14T14:13:20;9.10;;;4.30;;
65871;SDS011;52653;50.080;21.992;2023-03-14T14:15:55;9.30;;;5.10;;
65871;SDS011;52653;50.080;21.992;2023-03-14T14:18:31;7.90;;;4.70;;
65871;SDS011;52653;50.080;21.992;2023-03-14T14:21:10;6.70;;;4.30;;
65871;SDS011;52653;50.080;21.992;2023-03-14T14:23:45;7.10;;;4.60;;
65871;SDS011;52653;50.080;21.992;2023-03-14T14:26:18;7.20;;;4.30;;
65871;SDS011;52653;50.080;21.992;2023-03-14T14:28:59;9.70;;;4.70;;
65871;SDS011;52653;50.080;21.992;2023-03-14T14:31:33;10.50;;;4.40;;
65871;SDS011;52653;50.080;21.992;2023-03-14T14:34:18;8.60;;;4.60;;
65871;SDS011;52653;50.080;21.992;2023-03-14T14:36:55;9.80;;;4.60;;
65871;SDS011;52653;50.080;21.992;2023-03-14T14:39:28;9.20;;;4.80;;
65871;SDS011;52653;50.080;21.992;2023-03-14T14:42:02;10.10;;;5.50;;
65871;SDS011;52653;50.080;21.992;2023-03-14T14:44:44;10.30;;;5.70;;
65871;SDS011;52653;50.080;21.992;2023-03-14T14:47:19;10.80;;;6.30;;
65871;SDS011;52653;50.080;21.992;2023-03-14T14:49:54;12.70;;;5.90;;
65871;SDS011;52653;50.080;21.992;2023-03-14T14:52:55;7.10;;;4.50;;
65871;SDS011;52653;50.080;21.992;2023-03-14T14:55:40;9.70;;;4.70;;
65871;SDS011;52653;50.080;21.992;2023-03-14T14:58:26;11.40;;;5.80;;
65871;SDS011;52653;50.080;21.992;2023-03-14T15:01:22;11.30;;;5.90;;
65871;SDS011;52653;50.080;21.992;2023-03-14T15:04:16;10.30;;;5.50;;
65871;SDS011;52653;50.080;21.992;2023-03-14T15:07:09;9.50;;;5.80;;
65871;SDS011;52653;50.080;21.992;2023-03-14T15:10:04;8.50;;;4.70;;
65871;SDS011;52653;50.080;21.992;2023-03-14T15:12:59;9.60;;;4.40;;
65871;SDS011;52653;50.080;21.992;2023-03-14T15:15:54;8.00;;;4.70;;
65871;SDS011;52653;50.080;21.992;2023-03-14T15:18:36;10.10;;;5.00;;
65871;SDS011;52653;50.080;21.992;2023-03-14T15:24:34;8.40;;;4.50;;
65871;SDS011;52653;50.080;21.992;2023-03-14T15:27:30;10.00;;;5.80;;
65871;SDS011;52653;50.080;21.992;2023-03-14T15:30:22;9.70;;;5.40;;
65871;SDS011;52653;50.080;21.992;2023-03-14T15:33:15;8.90;;;5.30;;
65871;SDS011;52653;50.080;21.992;2023-03-14T15:36:14;10.20;;;5.10;;
65871;SDS011;52653;50.080;21.992;2023-03-14T15:39:13;9.70;;;5.50;;
65871;SDS011;52653;50.080;21.992;2023-03-14T15:41:56;15.30;;;7.40;;
65871;SDS011;52653;50.080;21.992;2023-03-14T15:44:49;11.50;;;7.10;;
65871;SDS011;52653;50.080;21.992;2023-03-14T15:47:36;14.90;;;7.30;;
65871;SDS011;52653;50.080;21.992;2023-03-14T15:50:29;12.30;;;6.70;;
65871;SDS011;52653;50.080;21.992;2023-03-14T15:53:15;18.50;;;8.60;;
65871;SDS011;52653;50.080;21.992;2023-03-14T15:56:12;13.30;;;7.10;;
65871;SDS011;52653;50.080;21.992;2023-03-14T15:59:07;14.70;;;7.90;;
65871;SDS011;52653;50.080;21.992;2023-03-14T16:01:50;27.60;;;13.30;;
65871;SDS011;52653;50.080;21.992;2023-03-14T16:04:43;16.00;;;8.80;;
65871;SDS011;52653;50.080;21.992;2023-03-14T16:07:37;18.00;;;8.30;;
65871;SDS011;52653;50.080;21.992;2023-03-14T16:10:31;16.10;;;8.90;;
65871;SDS011;52653;50.080;21.992;2023-03-14T16:13:17;17.10;;;8.10;;
65871;SDS011;52653;50.080;21.992;2023-03-14T16:16:12;14.20;;;8.30;;
65871;SDS011;52653;50.080;21.992;2023-03-14T16:19:07;12.90;;;8.50;;